Time;durP1;ratioP1;P1;durP2;ratioP2;P2;SDS_P1;SDS_P2;PMS_P1;PMS_P2;Temp;Humidity;BMP_temperature;BMP_pressure;BME280_temperature;BME280_humidity;BME280_pressure;Samples;Min_cycle;Max_cycle;Signal;HPM_P1;HPM_P2
2022/08/02 00:00:46;;;;;;;1.85;1.40;;;25.90;53.60;;;;;;5032215;28;88484;-84
2022/08/02 00:03:12;;;;;;;2.17;1.83;;;25.80;53.70;;;;;;5039569;28;87434;-84
2022/08/02 00:05:37;;;;;;;2.97;1.42;;;25.80;53.70;;;;;;5033037;28;87348;-84
2022/08/02 00:08:06;;;;;;;3.95;1.83;;;25.80;53.70;;;;;;5031622;27;88092;-84
2022/08/02 00:10:34;;;;;;;2.90;1.80;;;25.80;53.80;;;;;;5030425;28;90142;-84
2022/08/02 00:12:59;;;;;;;1.60;1.50;;;25.80;53.90;;;;;;5032658;28;87174;-84
2022/08/02 00:15:25;;;;;;;6.50;1.50;;;25.80;53.80;;;;;;5032789;28;87317;-85
2022/08/02 00:17:51;;;;;;;2.97;1.75;;;25.80;53.90;;;;;;5033613;28;87037;-84
2022/08/02 00:20:16;;;;;;;1.45;1.23;;;25.80;53.90;;;;;;5031833;28;88272;-84
2022/08/02 00:22:42;;;;;;;2.58;1.80;;;25.80;54.00;;;;;;5029565;28;88337;-84
2022/08/02 00:25:08;;;;;;;2.20;1.73;;;25.80;54.00;;;;;;5032689;28;88284;-84
2022/08/02 00:27:34;;;;;;;1.90;1.77;;;25.80;53.80;;;;;;5031401;28;89456;-84
2022/08/02 00:30:00;;;;;;;1.60;1.50;;;25.80;54.10;;;;;;5031385;28;87206;-84
2022/08/02 00:32:25;;;;;;;1.85;1.50;;;25.80;54.00;;;;;;5033414;28;87272;-84
2022/08/02 00:34:51;;;;;;;2.00;1.40;;;25.80;54.10;;;;;;5032993;28;87362;-84
2022/08/02 00:37:17;;;;;;;1.83;1.52;;;25.70;54.00;;;;;;5031188;28;88453;-84
2022/08/02 00:39:43;;;;;;;1.63;1.52;;;25.80;54.70;;;;;;5031590;28;88310;-84
2022/08/02 00:42:09;;;;;;;2.50;1.58;;;25.70;54.00;;;;;;5032043;28;87477;-84
2022/08/02 00:44:34;;;;;;;2.15;1.42;;;25.70;54.70;;;;;;5031796;28;87849;-84
2022/08/02 00:47:00;;;;;;;2.20;1.50;;;25.70;53.90;;;;;;5030815;28;88644;-84
2022/08/02 00:49:26;;;;;;;1.58;1.40;;;25.70;53.90;;;;;;5030066;28;90394;-84
2022/08/02 00:51:52;;;;;;;1.77;1.50;;;25.70;53.90;;;;;;5031905;28;86895;-84
2022/08/02 00:54:17;;;;;;;1.90;1.40;;;25.70;53.80;;;;;;5031431;28;87522;-84
2022/08/02 00:56:45;;;;;;;1.60;1.50;;;25.70;53.80;;;;;;5031013;28;87260;-84
2022/08/02 00:59:11;;;;;;;2.17;1.63;;;25.70;53.90;;;;;;5029481;28;89600;-84
2022/08/02 01:01:40;;;;;;;2.13;1.50;;;25.70;53.90;;;;;;5031335;28;87410;-85
2022/08/02 01:04:10;;;;;;;1.45;1.35;;;25.70;53.90;;;;;;5031302;28;88230;-84
2022/08/02 01:06:40;;;;;;;1.77;1.67;;;25.70;53.90;;;;;;5030190;27;87204;-84
2022/08/02 01:09:07;;;;;;;2.40;1.60;;;25.70;53.90;;;;;;5032491;28;87979;-84
2022/08/02 01:11:33;;;;;;;1.70;1.60;;;25.70;54.00;;;;;;5031134;28;88266;-84
2022/08/02 01:14:07;;;;;;;2.75;1.85;;;25.70;53.90;;;;;;5029993;28;87054;-84
2022/08/02 01:16:38;;;;;;;1.45;1.27;;;25.70;54.00;;;;;;5030935;28;89162;-84
2022/08/02 01:19:26;;;;;;;2.10;1.67;;;25.70;54.00;;;;;;5031608;28;87344;-84
2022/08/02 01:22:17;;;;;;;1.40;1.30;;;25.70;54.10;;;;;;5064582;27;86990;-84
2022/08/02 01:25:17;;;;;;;1.65;1.42;;;25.60;53.90;;;;;;5031774;28;87438;-84
2022/08/02 01:28:00;;;;;;;1.50;1.40;;;25.60;54.00;;;;;;5029372;28;90728;-85
2022/08/02 01:30:28;;;;;;;1.60;1.40;;;25.60;54.00;;;;;;5031648;28;87371;-84
2022/08/02 01:32:59;;;;;;;1.70;1.30;;;25.60;54.00;;;;;;5032382;28;87420;-84
2022/08/02 01:35:41;;;;;;;1.38;1.23;;;25.60;54.00;;;;;;5037894;28;87870;-84
2022/08/02 01:38:15;;;;;;;2.55;1.55;;;25.60;54.10;;;;;;5030832;28;89101;-84
2022/08/02 01:40:44;;;;;;;1.33;1.23;;;25.60;54.10;;;;;;5030845;28;88373;-84
2022/08/02 01:43:11;;;;;;;1.20;1.10;;;25.60;54.30;;;;;;5030753;28;88298;-84
2022/08/02 01:45:39;;;;;;;1.55;1.30;;;25.60;54.20;;;;;;5033150;28;88404;-84
2022/08/02 01:48:07;;;;;;;1.77;1.48;;;25.60;54.10;;;;;;5030767;28;88642;-84
2022/08/02 01:50:35;;;;;;;1.63;1.38;;;25.60;54.00;;;;;;5031323;28;87503;-84
2022/08/02 01:53:05;;;;;;;1.50;1.40;;;25.60;54.20;;;;;;5029595;28;86820;-84
2022/08/02 01:55:36;;;;;;;2.97;1.70;;;25.60;54.10;;;;;;5031004;28;87282;-84
2022/08/02 01:58:04;;;;;;;1.73;1.50;;;25.60;54.20;;;;;;5028897;28;88093;-83
2022/08/02 02:00:35;;;;;;;1.98;1.40;;;25.60;54.20;;;;;;5061460;27;90211;-84
2022/08/02 02:03:03;;;;;;;1.65;1.52;;;25.60;54.20;;;;;;5032495;28;88078;-84
2022/08/02 02:05:31;;;;;;;1.65;1.30;;;25.50;54.10;;;;;;5030965;28;87022;-84
2022/08/02 02:07:59;;;;;;;1.83;1.70;;;25.50;54.10;;;;;;5029454;28;88327;-84
2022/08/02 02:10:31;;;;;;;1.60;1.30;;;25.50;54.10;;;;;;5030513;28;88302;-84
2022/08/02 02:13:07;;;;;;;1.48;1.10;;;25.50;54.00;;;;;;5031515;28;87425;-84
2022/08/02 02:15:37;;;;;;;1.40;1.27;;;25.50;53.90;;;;;;5030558;28;87786;-84
2022/08/02 02:18:03;;;;;;;1.40;1.30;;;25.50;54.10;;;;;;5031251;28;87957;-84
2022/08/02 02:20:29;;;;;;;1.40;1.30;;;25.50;54.20;;;;;;5031117;28;87338;-84
2022/08/02 02:22:55;;;;;;;1.73;1.20;;;25.50;54.10;;;;;;5030298;28;87080;-84
2022/08/02 02:25:22;;;;;;;1.65;1.45;;;25.50;54.10;;;;;;5030287;28;88295;-84
2022/08/02 02:27:54;;;;;;;1.67;1.35;;;25.50;54.10;;;;;;5029245;28;89945;-84
2022/08/02 02:30:22;;;;;;;2.20;1.63;;;25.50;54.40;;;;;;5030076;28;88230;-84
2022/08/02 02:32:51;;;;;;;1.65;1.50;;;25.60;54.30;;;;;;5031201;28;87551;-84
2022/08/02 02:35:27;;;;;;;1.38;1.20;;;25.50;54.10;;;;;;5034126;28;87014;-84
2022/08/02 02:37:54;;;;;;;1.80;1.40;;;25.50;54.20;;;;;;5034165;28;88519;-84
2022/08/02 02:40:22;;;;;;;1.35;1.25;;;25.60;54.20;;;;;;5034186;28;90929;-84
2022/08/02 02:42:50;;;;;;;1.55;1.38;;;25.50;54.10;;;;;;5067284;27;87515;-84
2022/08/02 02:45:17;;;;;;;1.55;1.45;;;25.50;54.10;;;;;;5034060;28;88532;-84
2022/08/02 02:47:44;;;;;;;1.33;1.23;;;25.50;54.10;;;;;;5033650;28;87822;-84
2022/08/02 02:50:11;;;;;;;1.90;1.50;;;25.50;54.00;;;;;;5033698;28;88360;-84
2022/08/02 02:52:39;;;;;;;1.13;1.02;;;25.50;54.00;;;;;;5034850;28;88249;-84
2022/08/02 02:55:06;;;;;;;1.30;1.20;;;25.50;54.00;;;;;;5034296;28;87556;-84
2022/08/02 02:57:33;;;;;;;1.52;1.42;;;25.60;54.30;;;;;;5032802;28;90810;-84
2022/08/02 02:59:59;;;;;;;1.65;1.55;;;25.50;54.20;;;;;;5033644;28;88187;-84
2022/08/02 03:02:25;;;;;;;1.45;1.35;;;25.50;54.10;;;;;;5034827;28;87609;-84
2022/08/02 03:04:52;;;;;;;1.98;1.63;;;25.50;54.70;;;;;;5034085;28;87764;-84
2022/08/02 03:07:18;;;;;;;1.40;1.30;;;25.50;54.10;;;;;;5033710;28;87696;-84
2022/08/02 03:09:43;;;;;;;1.55;1.35;;;25.50;54.20;;;;;;5033082;28;87238;-84
2022/08/02 03:12:11;;;;;;;1.52;1.33;;;25.50;54.00;;;;;;5032105;28;87468;-84
2022/08/02 03:14:42;;;;;;;1.20;1.10;;;25.50;54.20;;;;;;5033927;28;87321;-84
2022/08/02 03:17:07;;;;;;;2.28;1.50;;;25.50;54.20;;;;;;5031284;28;89015;-84
2022/08/02 03:19:33;;;;;;;1.50;1.40;;;25.50;54.30;;;;;;5030537;28;87757;-83
2022/08/02 03:21:58;;;;;;;1.60;1.48;;;25.50;54.30;;;;;;5028621;28;86940;-84
2022/08/02 03:24:24;;;;;;;1.83;1.38;;;25.50;54.20;;;;;;5033154;28;87835;-84
2022/08/02 03:26:49;;;;;;;1.67;1.52;;;25.50;54.30;;;;;;5032090;28;88700;-84
2022/08/02 03:29:15;;;;;;;2.03;1.60;;;25.40;54.20;;;;;;5031967;28;86990;-84
2022/08/02 03:31:44;;;;;;;1.73;1.42;;;25.40;54.20;;;;;;5032373;28;87188;-84
2022/08/02 03:34:10;;;;;;;1.42;1.33;;;25.40;54.20;;;;;;5034802;28;86953;-84
2022/08/02 03:36:37;;;;;;;1.55;1.45;;;25.40;54.30;;;;;;5031917;28;88408;-84
2022/08/02 03:39:03;;;;;;;1.38;1.25;;;25.40;54.40;;;;;;5065218;27;91414;-84
2022/08/02 03:41:30;;;;;;;2.60;1.67;;;25.40;54.50;;;;;;5032288;28;88207;-83
2022/08/02 03:43:57;;;;;;;1.50;1.40;;;25.40;54.40;;;;;;5030724;28;87385;-84
2022/08/02 03:46:23;;;;;;;1.30;1.20;;;25.40;55.10;;;;;;5031505;28;87669;-84
2022/08/02 03:48:50;;;;;;;1.38;1.27;;;25.40;54.40;;;;;;5034261;27;87895;-84
2022/08/02 03:51:18;;;;;;;1.40;1.30;;;25.40;54.50;;;;;;5032140;27;87558;-84
2022/08/02 03:53:53;;;;;;;2.35;1.40;;;25.40;54.40;;;;;;5033165;28;87602;-85
2022/08/02 03:56:19;;;;;;;1.67;1.40;;;25.30;54.50;;;;;;5033633;28;87608;-83
2022/08/02 03:58:45;;;;;;;1.50;1.40;;;25.30;54.40;;;;;;5032613;28;87774;-84
2022/08/02 04:01:10;;;;;;;1.80;1.70;;;25.40;54.60;;;;;;5032653;28;87641;-84
2022/08/02 04:03:36;;;;;;;1.83;1.70;;;25.30;54.30;;;;;;5033197;28;87680;-84
2022/08/02 04:06:01;;;;;;;1.50;1.40;;;25.30;54.40;;;;;;5033366;28;89292;-84
2022/08/02 04:08:27;;;;;;;1.77;1.67;;;25.30;54.40;;;;;;5033430;28;87999;-84
2022/08/02 04:13:38;;;;;;;1.63;1.35;;;25.30;54.50;;;;;;5033269;28;87128;-83
2022/08/02 04:16:13;;;;;;;1.45;1.35;;;25.30;54.50;;;;;;5031900;28;90309;-84
2022/08/02 04:18:44;;;;;;;1.38;1.27;;;25.30;54.60;;;;;;5062239;27;87038;-84
2022/08/02 04:21:13;;;;;;;1.63;1.40;;;25.30;54.60;;;;;;5033491;27;87351;-85
2022/08/02 04:23:41;;;;;;;1.60;1.50;;;25.30;54.60;;;;;;5031131;27;86495;-81
2022/08/02 04:26:09;;;;;;;1.52;1.42;;;25.30;54.60;;;;;;5031359;28;89195;-82
2022/08/02 04:28:35;;;;;;;1.75;1.50;;;25.30;54.60;;;;;;5032351;28;88990;-82
2022/08/02 04:31:02;;;;;;;1.60;1.50;;;25.30;54.50;;;;;;5064980;27;88448;-82
2022/08/02 04:33:28;;;;;;;1.60;1.40;;;25.30;54.50;;;;;;5031144;28;87347;-82
2022/08/02 04:35:54;;;;;;;1.73;1.63;;;25.30;54.50;;;;;;5031725;28;87855;-82
2022/08/02 04:38:20;;;;;;;1.30;1.20;;;25.30;54.50;;;;;;5031448;28;87458;-82
2022/08/02 04:40:54;;;;;;;1.30;1.20;;;25.30;54.50;;;;;;5031198;28;87156;-82
2022/08/02 04:43:21;;;;;;;1.40;1.30;;;25.30;54.70;;;;;;5031543;28;90937;-82
2022/08/02 04:45:52;;;;;;;1.38;1.23;;;25.30;54.70;;;;;;5032130;28;88558;-82
2022/08/02 04:48:18;;;;;;;1.70;1.60;;;25.30;54.80;;;;;;5031982;28;88028;-82
2022/08/02 04:50:44;;;;;;;1.77;1.10;;;25.30;54.80;;;;;;5032019;28;87028;-82
2022/08/02 04:53:12;;;;;;;1.50;1.30;;;25.30;54.80;;;;;;5033043;28;87439;-82
2022/08/02 04:55:40;;;;;;;1.40;1.30;;;25.30;54.80;;;;;;5030501;28;89569;-82
2022/08/02 04:58:05;;;;;;;1.40;1.30;;;25.30;54.70;;;;;;5031519;28;89193;-82
2022/08/02 05:00:31;;;;;;;1.52;1.42;;;25.30;54.60;;;;;;5032034;28;87251;-82
2022/08/02 05:02:57;;;;;;;1.42;1.33;;;25.30;54.50;;;;;;5030690;28;87572;-85
2022/08/02 05:05:24;;;;;;;1.45;1.35;;;25.30;54.50;;;;;;5029943;28;90172;-82
2022/08/02 05:07:49;;;;;;;1.17;1.08;;;25.30;54.60;;;;;;5032001;28;87385;-82
2022/08/02 05:10:15;;;;;;;1.50;1.30;;;25.20;54.50;;;;;;5030466;28;86998;-83
2022/08/02 05:12:41;;;;;;;1.35;1.25;;;25.30;54.50;;;;;;5032530;28;86871;-82
2022/08/02 05:15:08;;;;;;;1.73;1.40;;;25.30;54.50;;;;;;5031855;28;88180;-83
2022/08/02 05:17:33;;;;;;;1.45;1.20;;;25.30;54.60;;;;;;5048636;27;88682;-83
2022/08/02 05:19:59;;;;;;;1.30;1.20;;;25.30;54.60;;;;;;5048883;27;88507;-82
2022/08/02 05:22:24;;;;;;;1.33;1.20;;;25.30;54.60;;;;;;5030683;27;89345;-82
2022/08/02 05:24:50;;;;;;;1.40;1.30;;;25.30;54.40;;;;;;5048542;27;88226;-82
2022/08/02 05:27:16;;;;;;;1.40;1.10;;;25.40;54.40;;;;;;5048690;27;88047;-82
2022/08/02 05:29:41;;;;;;;1.50;1.40;;;25.40;54.40;;;;;;5048118;27;87642;-83
2022/08/02 05:32:07;;;;;;;1.35;1.25;;;25.40;54.40;;;;;;5048653;27;88044;-82
2022/08/02 05:34:32;;;;;;;1.30;1.20;;;25.50;54.50;;;;;;5049385;27;88195;-82
2022/08/02 05:36:58;;;;;;;1.65;1.33;;;25.50;54.40;;;;;;5049032;27;88119;-82
2022/08/02 05:39:23;;;;;;;1.33;1.23;;;25.50;54.30;;;;;;5044056;27;87642;-80
2022/08/02 05:41:49;;;;;;;3.20;2.00;;;25.60;54.20;;;;;;5042622;27;87978;-80
2022/08/02 05:44:15;;;;;;;4.15;2.55;;;25.60;54.00;;;;;;5042798;27;89459;-79
2022/08/02 05:46:43;;;;;;;6.88;2.50;;;25.50;54.00;;;;;;5045147;27;89486;-80
2022/08/02 05:49:09;;;;;;;3.72;3.03;;;25.50;54.10;;;;;;5029957;27;87214;-80
2022/08/02 05:51:39;;;;;;;4.40;2.70;;;25.40;54.30;;;;;;5024695;28;87394;-80
2022/08/02 05:54:37;;;;;;;10.43;2.42;;;25.40;54.60;;;;;;5025790;28;88547;-79
2022/08/02 05:57:14;;;;;;;6.10;2.42;;;25.40;54.90;;;;;;5012575;28;88278;-80
2022/08/02 05:59:52;;;;;;;98.43;17.65;;;25.40;55.00;;;;;;5012707;28;87486;-81
2022/08/02 06:02:53;;;;;;;86.88;16.42;;;25.50;54.80;;;;;;5012660;28;87294;-80
2022/08/02 06:05:20;;;;;;;33.15;8.75;;;25.40;55.10;;;;;;5008744;28;88424;-79
2022/08/02 06:07:48;;;;;;;25.13;6.75;;;25.50;55.00;;;;;;5012442;28;87177;-80
2022/08/02 06:10:19;;;;;;;16.83;4.97;;;25.40;54.90;;;;;;5018892;28;88368;-80
2022/08/02 06:13:00;;;;;;;14.27;4.60;;;25.40;54.80;;;;;;5014004;28;88666;-79
2022/08/02 06:15:26;;;;;;;11.73;4.05;;;25.40;54.90;;;;;;5013073;28;87494;-80
2022/08/02 06:17:52;;;;;;;11.02;4.10;;;25.40;55.10;;;;;;5016849;28;87575;-82
2022/08/02 06:20:19;;;;;;;12.27;3.65;;;25.50;55.10;;;;;;5018926;28;88222;-84
2022/08/02 06:22:45;;;;;;;11.88;3.90;;;25.50;55.00;;;;;;5020338;28;87468;-83
2022/08/02 06:25:12;;;;;;;7.30;2.95;;;25.50;55.00;;;;;;5012466;28;87900;-83
2022/08/02 06:27:40;;;;;;;12.02;3.38;;;25.60;54.90;;;;;;5007093;28;87967;-83
2022/08/02 06:30:07;;;;;;;9.98;3.05;;;25.60;55.10;;;;;;5008939;28;87558;-81
2022/08/02 06:32:33;;;;;;;5.15;2.53;;;25.50;55.40;;;;;;5009344;28;87374;-81
2022/08/02 06:34:59;;;;;;;8.68;3.17;;;25.50;55.20;;;;;;5020898;28;89091;-81
2022/08/02 06:37:49;;;;;;;5.93;2.50;;;25.40;55.50;;;;;;5022481;28;89094;-81
2022/08/02 06:40:51;;;;;;;5.47;2.70;;;25.40;55.50;;;;;;5020833;28;87382;-81
2022/08/02 06:43:47;;;;;;;6.40;2.53;;;25.30;55.50;;;;;;5009128;28;87712;-81
2022/08/02 06:46:13;;;;;;;6.03;2.65;;;25.40;55.60;;;;;;4982078;28;91363;-81
2022/08/02 06:48:40;;;;;;;10.50;2.40;;;25.50;55.70;;;;;;4992332;28;90432;-82
2022/08/02 06:51:06;;;;;;;12.98;2.33;;;25.50;55.40;;;;;;5010069;28;87155;-81
2022/08/02 06:53:32;;;;;;;7.70;2.83;;;25.60;55.50;;;;;;5007678;28;87243;-81
2022/08/02 06:55:57;;;;;;;10.65;2.80;;;25.60;55.40;;;;;;5008359;28;88485;-81
2022/08/02 06:58:23;;;;;;;20.40;2.90;;;25.70;55.20;;;;;;5006320;28;88441;-81
2022/08/02 07:00:49;;;;;;;20.65;3.42;;;25.70;55.00;;;;;;5008841;28;88180;-82
2022/08/02 07:03:14;;;;;;;14.45;2.70;;;25.70;54.90;;;;;;5010061;28;87418;-83
2022/08/02 07:05:40;;;;;;;8.90;2.72;;;25.70;54.70;;;;;;5009217;28;87139;-82
2022/08/02 07:08:06;;;;;;;11.68;2.60;;;25.70;54.70;;;;;;5009535;28;87902;-82
2022/08/02 07:10:32;;;;;;;12.35;2.42;;;25.70;55.40;;;;;;5009654;28;87508;-82
2022/08/02 07:12:57;;;;;;;16.33;2.65;;;25.70;55.90;;;;;;5009411;28;88218;-83
2022/08/02 07:15:23;;;;;;;16.35;3.55;;;25.70;55.50;;;;;;5006187;28;88308;-82
2022/08/02 07:17:48;;;;;;;12.48;2.80;;;25.80;55.10;;;;;;4954477;28;87792;-82
2022/08/02 07:20:14;;;;;;;14.63;3.15;;;25.80;55.50;;;;;;5019290;28;87499;-83
2022/08/02 07:22:40;;;;;;;12.98;3.17;;;25.80;55.40;;;;;;5023982;27;86915;-82
2022/08/02 07:25:06;;;;;;;21.35;3.53;;;25.90;55.50;;;;;;5019532;28;89211;-82
2022/08/02 07:27:32;;;;;;;14.13;2.65;;;26.00;55.40;;;;;;5021290;28;90336;-82
2022/08/02 07:29:58;;;;;;;15.57;2.92;;;25.90;55.40;;;;;;5023259;28;87345;-82
2022/08/02 07:32:27;;;;;;;17.40;3.10;;;25.90;55.50;;;;;;5021992;28;86892;-82
2022/08/02 07:34:54;;;;;;;12.35;3.17;;;26.00;55.70;;;;;;5021415;28;89701;-82
2022/08/02 07:37:21;;;;;;;24.38;3.83;;;26.00;55.60;;;;;;5021005;28;87455;-83
2022/08/02 07:39:47;;;;;;;15.63;2.83;;;26.00;55.50;;;;;;5020156;27;87510;-82
2022/08/02 07:42:13;;;;;;;11.25;3.03;;;26.00;55.40;;;;;;5021483;28;87376;-82
2022/08/02 07:44:38;;;;;;;17.45;3.15;;;26.00;55.50;;;;;;5024098;28;88732;-82
2022/08/02 07:47:04;;;;;;;9.07;3.15;;;26.00;55.40;;;;;;5019596;28;88642;-82
2022/08/02 07:49:29;;;;;;;18.85;3.45;;;26.00;55.50;;;;;;5022833;28;88289;-81
2022/08/02 07:51:56;;;;;;;22.65;3.38;;;26.00;55.00;;;;;;5028508;28;87570;-81
2022/08/02 07:54:22;;;;;;;19.55;4.10;;;26.10;53.70;;;;;;5022659;28;88684;-81
2022/08/02 07:56:47;;;;;;;18.88;4.03;;;26.10;53.50;;;;;;5024535;28;87768;-81
2022/08/02 07:59:13;;;;;;;26.88;4.10;;;26.00;53.70;;;;;;5023455;28;87139;-81
2022/08/02 08:01:39;;;;;;;21.15;3.25;;;26.00;53.50;;;;;;5024296;28;88423;-82
2022/08/02 08:04:05;;;;;;;22.38;4.22;;;26.10;53.60;;;;;;5022730;28;88838;-81
2022/08/02 08:06:33;;;;;;;23.40;3.83;;;26.00;53.50;;;;;;5025588;28;87978;-82
2022/08/02 08:08:59;;;;;;;40.95;5.43;;;26.10;53.50;;;;;;5024556;28;87259;-82
2022/08/02 08:11:25;;;;;;;35.97;5.07;;;26.10;53.40;;;;;;5025615;28;86947;-82
2022/08/02 08:13:50;;;;;;;50.92;5.45;;;26.00;53.50;;;;;;5025443;28;88358;-81
2022/08/02 08:16:16;;;;;;;44.15;7.55;;;26.10;53.40;;;;;;5027587;28;89178;-82
2022/08/02 08:18:42;;;;;;;41.17;6.25;;;26.10;53.40;;;;;;5027260;28;87297;-82
2022/08/02 08:21:08;;;;;;;36.25;5.30;;;26.10;53.20;;;;;;5025974;28;86945;-82
2022/08/02 08:23:34;;;;;;;27.42;4.97;;;26.10;52.60;;;;;;5022776;28;88580;-82
2022/08/02 08:26:00;;;;;;;24.40;3.97;;;26.10;52.40;;;;;;5027064;28;87752;-81
2022/08/02 08:28:26;;;;;;;18.10;3.70;;;26.20;52.10;;;;;;5030194;27;86966;-82
2022/08/02 08:30:51;;;;;;;17.63;3.97;;;26.10;52.00;;;;;;5025354;28;86394;-82
2022/08/02 08:33:17;;;;;;;18.30;4.00;;;26.10;52.20;;;;;;5022695;28;88591;-82
2022/08/02 08:35:42;;;;;;;18.52;3.42;;;26.10;52.20;;;;;;5027566;27;87892;-82
2022/08/02 08:38:08;;;;;;;24.63;4.05;;;26.20;52.40;;;;;;5029353;28;88351;-82
2022/08/02 08:40:35;;;;;;;21.70;3.97;;;26.20;52.10;;;;;;5030049;28;88060;-82
2022/08/02 08:43:00;;;;;;;29.30;4.05;;;26.20;52.10;;;;;;5021541;28;90472;-81
2022/08/02 08:45:26;;;;;;;23.42;4.15;;;26.20;52.30;;;;;;5021901;28;88346;-82
2022/08/02 08:47:59;;;;;;;22.05;3.75;;;26.20;52.20;;;;;;5025207;28;87280;-83
2022/08/02 08:50:26;;;;;;;29.75;4.10;;;26.20;52.00;;;;;;5026683;28;86984;-82
2022/08/02 08:53:06;;;;;;;20.98;3.33;;;26.20;51.70;;;;;;5027677;28;87688;-82
2022/08/02 08:55:35;;;;;;;16.88;3.38;;;26.30;51.60;;;;;;5022838;28;87356;-82
2022/08/02 08:58:03;;;;;;;16.75;3.47;;;26.30;51.50;;;;;;5027878;28;87336;-82
2022/08/02 09:00:30;;;;;;;16.80;2.60;;;26.30;51.40;;;;;;5028139;28;87767;-82
2022/08/02 09:02:56;;;;;;;11.40;2.20;;;26.40;51.20;;;;;;5025233;28;89113;-82
2022/08/02 09:05:24;;;;;;;10.45;2.85;;;26.40;51.00;;;;;;5022591;28;88446;-82
2022/08/02 09:07:50;;;;;;;12.52;2.53;;;26.40;51.20;;;;;;5022233;28;87053;-82
2022/08/02 09:10:36;;;;;;;5.68;2.00;;;26.50;51.30;;;;;;5022658;28;87288;-82
2022/08/02 09:13:15;;;;;;;9.20;2.63;;;26.50;51.30;;;;;;5022846;28;87974;-82
2022/08/02 09:15:51;;;;;;;7.82;2.00;;;26.50;50.90;;;;;;5021685;28;89750;-81
2022/08/02 09:18:17;;;;;;;10.27;1.98;;;26.50;51.10;;;;;;5025184;28;87445;-82
2022/08/02 09:21:01;;;;;;;6.20;1.90;;;26.50;51.10;;;;;;5025688;28;87825;-81
2022/08/02 09:23:37;;;;;;;5.65;2.17;;;26.40;51.20;;;;;;5023944;28;87610;-82
2022/08/02 09:26:08;;;;;;;5.60;1.73;;;26.40;51.70;;;;;;5023300;28;87390;-82
2022/08/02 09:28:39;;;;;;;5.28;1.88;;;26.30;51.90;;;;;;5024502;28;88175;-82
2022/08/02 09:31:09;;;;;;;13.13;2.08;;;26.40;52.40;;;;;;5026830;28;87184;-83
2022/08/02 09:33:36;;;;;;;8.13;1.88;;;26.50;51.80;;;;;;5025541;28;87785;-83
2022/08/02 09:36:13;;;;;;;7.72;1.60;;;26.50;51.70;;;;;;5025704;28;88490;-83
2022/08/02 09:38:50;;;;;;;3.30;1.75;;;26.50;51.90;;;;;;5028145;28;87257;-83
2022/08/02 09:41:27;;;;;;;5.10;2.05;;;26.40;51.90;;;;;;5026176;28;87618;-84
2022/08/02 09:43:54;;;;;;;6.13;2.20;;;26.40;51.90;;;;;;5027591;28;88300;-84
2022/08/02 09:46:25;;;;;;;8.93;2.15;;;26.50;52.10;;;;;;5030208;28;89351;-84
2022/08/02 09:48:56;;;;;;;8.48;2.00;;;26.50;52.00;;;;;;5027850;28;87011;-84
2022/08/02 09:51:23;;;;;;;6.63;2.08;;;26.60;52.00;;;;;;5027160;28;88784;-84
2022/08/02 09:53:51;;;;;;;6.53;2.22;;;26.60;52.00;;;;;;5025545;28;89816;-84
2022/08/02 09:56:18;;;;;;;9.35;2.42;;;26.60;52.20;;;;;;5024426;28;89539;-84
2022/08/02 09:58:44;;;;;;;5.57;2.03;;;26.50;51.80;;;;;;5027514;28;87276;-84
2022/08/02 10:01:10;;;;;;;8.38;2.10;;;26.50;51.90;;;;;;5028182;28;87495;-84
2022/08/02 10:03:36;;;;;;;6.00;2.30;;;26.50;52.00;;;;;;5030509;28;88517;-85
2022/08/02 10:06:03;;;;;;;12.20;3.35;;;26.50;52.10;;;;;;5026245;28;89997;-84
2022/08/02 10:08:30;;;;;;;10.20;5.20;;;26.50;52.20;;;;;;5025729;28;86903;-85
2022/08/02 10:10:59;;;;;;;12.55;7.47;;;26.50;52.20;;;;;;5029580;28;87066;-85
2022/08/02 10:13:33;;;;;;;18.70;9.77;;;26.50;52.60;;;;;;5026073;28;87716;-84
2022/08/02 10:16:01;;;;;;;17.77;11.77;;;26.60;52.70;;;;;;5028517;28;87836;-85
2022/08/02 10:18:27;;;;;;;27.63;10.70;;;26.70;53.10;;;;;;5028450;28;88365;-85
2022/08/02 10:20:55;;;;;;;24.70;10.50;;;26.60;52.90;;;;;;5025787;28;87583;-85
2022/08/02 10:23:25;;;;;;;18.50;9.40;;;26.60;52.90;;;;;;5027067;28;88716;-84
2022/08/02 10:25:53;;;;;;;27.75;9.75;;;26.70;53.00;;;;;;5027342;28;87467;-85
2022/08/02 10:28:25;;;;;;;28.15;9.88;;;26.80;53.30;;;;;;5028062;28;87392;-84
2022/08/02 10:30:54;;;;;;;33.03;9.07;;;26.80;53.40;;;;;;5029742;28;87119;-86
2022/08/02 10:33:20;;;;;;;54.03;10.25;;;26.90;53.80;;;;;;5028862;28;87317;-85
2022/08/02 10:35:50;;;;;;;45.45;9.35;;;26.80;53.60;;;;;;5027792;28;88440;-85
2022/08/02 10:38:23;;;;;;;40.25;10.00;;;26.80;53.60;;;;;;5031376;28;87005;-86
2022/08/02 10:40:51;;;;;;;35.45;9.18;;;26.70;54.10;;;;;;5113806;22;87291;-82
2022/08/02 10:43:34;;;;;;;30.27;8.27;;;26.70;54.10;;;;;;4996042;28;88444;-81
2022/08/02 10:46:31;;;;;;;25.52;8.68;;;26.70;54.00;;;;;;4996655;28;88380;-81
2022/08/02 10:49:09;;;;;;;25.05;7.78;;;26.60;54.30;;;;;;4996709;28;87023;-82
2022/08/02 10:51:53;;;;;;;21.80;8.93;;;26.60;54.10;;;;;;4996020;28;87376;-81
2022/08/02 10:54:20;;;;;;;17.48;7.30;;;26.60;54.20;;;;;;4996429;28;88533;-80
2022/08/02 10:56:50;;;;;;;17.98;7.25;;;26.60;54.30;;;;;;4998215;28;88454;-81
2022/08/02 10:59:34;;;;;;;25.20;8.43;;;26.60;54.40;;;;;;4999685;28;87264;-80
2022/08/02 11:02:04;;;;;;;19.23;8.70;;;26.60;54.20;;;;;;5000422;28;86507;-81
2022/08/02 11:04:31;;;;;;;22.10;7.32;;;26.60;54.20;;;;;;5001305;28;88248;-82
2022/08/02 11:07:07;;;;;;;23.30;7.88;;;26.70;54.80;;;;;;5001443;28;87321;-81
2022/08/02 11:09:33;;;;;;;22.50;7.68;;;26.70;54.60;;;;;;4998638;28;88600;-82
2022/08/02 11:12:10;;;;;;;27.45;8.18;;;26.80;54.90;;;;;;5001090;28;87236;-82
2022/08/02 11:14:38;;;;;;;22.50;6.95;;;26.80;55.30;;;;;;4998968;28;88984;-81
2022/08/02 11:17:15;;;;;;;33.83;8.17;;;26.80;55.40;;;;;;5000204;28;87761;-81
2022/08/02 11:20:10;;;;;;;40.60;8.05;;;26.90;55.30;;;;;;4999784;28;87670;-81
2022/08/02 11:22:37;;;;;;;27.67;8.15;;;26.90;55.30;;;;;;5000291;28;87247;-81
2022/08/02 11:25:21;;;;;;;28.05;7.57;;;26.90;55.30;;;;;;5001123;28;88639;-81
2022/08/02 11:27:58;;;;;;;16.48;6.63;;;26.90;55.20;;;;;;5001125;28;87413;-81
2022/08/02 11:30:24;;;;;;;22.13;7.15;;;26.80;55.20;;;;;;5000297;28;87238;-81
2022/08/02 11:32:54;;;;;;;24.15;7.13;;;26.80;55.30;;;;;;5001055;28;86940;-81
2022/08/02 11:35:21;;;;;;;18.08;6.68;;;26.80;55.30;;;;;;4999801;28;88634;-82
2022/08/02 11:37:47;;;;;;;17.85;7.00;;;26.80;55.20;;;;;;5000300;28;88725;-81
2022/08/02 11:40:15;;;;;;;23.95;8.07;;;26.80;55.20;;;;;;5000401;28;87734;-82
2022/08/02 11:42:45;;;;;;;14.63;6.68;;;26.90;55.50;;;;;;4999806;28;87456;-81
2022/08/02 11:45:15;;;;;;;16.67;6.95;;;26.80;55.40;;;;;;5000567;28;87576;-82
2022/08/02 11:47:49;;;;;;;16.30;6.25;;;26.70;55.60;;;;;;5000150;28;87848;-81
2022/08/02 11:50:16;;;;;;;15.32;6.30;;;26.80;55.30;;;;;;5000485;28;87298;-82
2022/08/02 11:52:43;;;;;;;19.15;6.60;;;26.80;55.70;;;;;;5001338;28;86491;-81
2022/08/02 11:55:10;;;;;;;27.92;7.57;;;26.90;55.90;;;;;;4999326;28;87358;-82
2022/08/02 11:57:36;;;;;;;18.00;6.30;;;26.90;55.80;;;;;;4998605;28;88716;-81
2022/08/02 12:00:12;;;;;;;25.17;6.97;;;26.80;55.70;;;;;;4999277;28;88192;-81
2022/08/02 12:02:44;;;;;;;20.67;6.38;;;26.80;55.70;;;;;;4998320;28;90397;-82
2022/08/02 12:05:16;;;;;;;20.83;6.78;;;26.80;55.90;;;;;;4997766;28;88271;-81
2022/08/02 12:07:41;;;;;;;22.20;7.07;;;26.80;56.10;;;;;;4998799;28;88709;-81
2022/08/02 12:10:10;;;;;;;16.67;6.18;;;26.80;56.20;;;;;;5000777;28;87118;-81
2022/08/02 12:12:50;;;;;;;27.38;6.80;;;26.80;56.10;;;;;;4998554;28;87444;-81
2022/08/02 12:15:48;;;;;;;16.98;6.10;;;26.80;55.00;;;;;;4998503;28;88439;-82
2022/08/02 12:21:23;;;;;;;17.23;6.05;;;26.80;54.50;;;;;;5000038;28;87344;-81
2022/08/02 12:23:49;;;;;;;14.65;5.95;;;26.80;54.70;;;;;;5000445;28;87425;-81
2022/08/02 12:26:14;;;;;;;14.57;6.03;;;26.80;54.70;;;;;;4998785;28;88596;-81
2022/08/02 12:28:40;;;;;;;12.73;5.80;;;26.70;54.80;;;;;;4999198;28;89377;-81
2022/08/02 12:31:09;;;;;;;18.70;6.13;;;26.60;54.90;;;;;;5000182;28;86863;-81
2022/08/02 12:33:45;;;;;;;18.52;6.68;;;26.70;55.00;;;;;;4999965;28;87284;-81
2022/08/02 12:36:15;;;;;;;12.88;6.05;;;26.70;54.90;;;;;;4998855;28;88155;-82
2022/08/02 12:38:51;;;;;;;14.98;5.90;;;26.70;55.20;;;;;;4999065;28;87853;-80
2022/08/02 12:41:17;;;;;;;15.70;5.80;;;26.60;55.00;;;;;;5000490;28;88410;-81
2022/08/02 12:43:43;;;;;;;12.90;6.05;;;26.60;55.00;;;;;;5000705;28;88223;-80
2022/08/02 12:46:16;;;;;;;17.15;6.10;;;26.70;55.00;;;;;;5000185;28;88707;-81
2022/08/02 12:48:42;;;;;;;15.52;6.00;;;26.80;54.90;;;;;;4998395;28;88010;-81
2022/08/02 12:51:27;;;;;;;17.75;5.68;;;26.90;54.70;;;;;;4998461;28;88307;-81
2022/08/02 12:53:56;;;;;;;17.15;5.50;;;26.90;54.40;;;;;;4997830;28;87525;-81
2022/08/02 12:56:29;;;;;;;17.88;5.90;;;26.80;54.70;;;;;;4998225;28;88335;-80
2022/08/02 12:58:55;;;;;;;15.68;5.43;;;26.90;55.10;;;;;;4998178;28;87327;-81